createdAt,value
2018-04-19T00:01:44.666Z,38.67
2018-04-19T00:04:13.270Z,38.03
2018-04-19T00:06:41.908Z,28.23
2018-04-19T00:09:10.506Z,23.03
2018-04-19T00:11:39.143Z,29.70
2018-04-19T00:14:07.741Z,45.80
2018-04-19T00:16:36.376Z,41.53
2018-04-19T00:19:04.990Z,32.13
2018-04-19T00:21:33.623Z,44.13
2018-04-19T00:24:02.219Z,35.50
2018-04-19T00:26:30.847Z,32.57
2018-04-19T00:28:59.457Z,24.93
2018-04-19T00:31:28.110Z,35.70
2018-04-19T00:33:56.718Z,38.43
2018-04-19T00:36:25.326Z,38.58
2018-04-19T00:38:53.950Z,32.10
2018-04-19T00:41:22.547Z,29.60
2018-04-19T00:43:51.169Z,23.60
2018-04-19T00:46:19.770Z,41.75
2018-04-19T00:48:48.405Z,38.03
2018-04-19T00:51:17.012Z,36.93
2018-04-19T00:53:45.645Z,33.10
2018-04-19T00:56:14.250Z,56.77
2018-04-19T00:58:42.883Z,39.23
2018-04-19T01:01:11.483Z,33.73
2018-04-19T01:03:40.122Z,29.03
2018-04-19T01:06:08.719Z,25.17
2018-04-19T01:08:37.348Z,32.90
2018-04-19T01:11:05.956Z,37.77
2018-04-19T01:13:34.592Z,24.87
2018-04-19T01:16:03.192Z,23.40
2018-04-19T01:18:31.799Z,25.60
2018-04-19T01:21:00.430Z,29.47
2018-04-19T01:23:29.067Z,31.87
2018-04-19T01:25:57.698Z,22.87
2018-04-19T01:28:26.300Z,23.37
2018-04-19T01:30:54.926Z,27.23
2018-04-19T01:33:24.460Z,38.17
2018-04-19T01:36:26.923Z,41.20
2018-04-19T01:38:55.522Z,38.43
2018-04-19T01:41:24.153Z,29.17
2018-04-19T01:43:52.759Z,40.50
2018-04-19T01:46:21.403Z,30.87
2018-04-19T01:48:50.005Z,26.30
2018-04-19T01:51:18.646Z,25.53
2018-04-19T01:53:47.245Z,23.87
2018-04-19T01:56:15.875Z,21.70
2018-04-19T01:58:44.476Z,37.63
2018-04-19T02:01:13.107Z,29.37
2018-04-19T02:03:41.705Z,24.37
2018-04-19T02:06:10.337Z,39.07
2018-04-19T02:08:38.954Z,29.13
2018-04-19T02:11:07.570Z,29.57
2018-04-19T02:13:36.172Z,35.13
2018-04-19T02:16:04.771Z,25.10
2018-04-19T02:18:33.419Z,29.37
2018-04-19T02:21:02.014Z,35.70
2018-04-19T02:23:30.650Z,50.47
2018-04-19T02:25:59.257Z,38.90
2018-04-19T02:28:27.882Z,37.00
2018-04-19T02:30:56.496Z,51.17
2018-04-19T02:33:25.130Z,58.20
2018-04-19T02:35:53.723Z,50.40
2018-04-19T02:38:22.351Z,39.60
2018-04-19T02:40:50.956Z,43.63
2018-04-19T02:43:19.586Z,44.33
2018-04-19T02:45:48.188Z,58.73
2018-04-19T02:48:16.786Z,41.77
2018-04-19T02:50:45.424Z,32.65
2018-04-19T02:53:14.030Z,60.40
2018-04-19T02:55:42.655Z,56.13
2018-04-19T02:58:11.274Z,47.73
2018-04-19T03:00:39.911Z,34.00
2018-04-19T03:03:08.539Z,30.40
2018-04-19T03:05:37.168Z,58.10
2018-04-19T03:08:05.800Z,76.10
2018-04-19T03:10:34.451Z,66.70
2018-04-19T03:13:03.076Z,41.70
2018-04-19T03:15:31.707Z,25.03
2018-04-19T03:18:00.312Z,73.70
2018-04-19T03:20:28.975Z,55.60
2018-04-19T03:22:57.551Z,51.10
2018-04-19T03:25:26.152Z,61.33
2018-04-19T03:27:54.783Z,45.43
2018-04-19T03:30:23.378Z,68.87
2018-04-19T03:32:52.015Z,86.17
2018-04-19T03:35:20.623Z,111.40
2018-04-19T03:37:49.517Z,76.53
2018-04-19T03:40:18.121Z,45.47
2018-04-19T03:42:46.753Z,94.50
2018-04-19T03:45:15.358Z,105.67
2018-04-19T03:47:43.991Z,74.50
2018-04-19T03:50:12.599Z,75.20
2018-04-19T03:52:41.260Z,50.57
2018-04-19T03:55:09.893Z,61.33
2018-04-19T03:57:38.786Z,83.57
2018-04-19T04:00:07.457Z,106.53
2018-04-19T04:02:36.061Z,85.27
2018-04-19T04:05:04.697Z,72.70
2018-04-19T04:07:33.313Z,106.90
2018-04-19T04:10:01.952Z,95.77
2018-04-19T04:12:30.550Z,85.53
2018-04-19T04:14:59.626Z,104.87
2018-04-19T04:18:05.660Z,68.13
2018-04-19T04:21:08.072Z,49.17
2018-04-19T04:23:54.705Z,84.70
2018-04-19T04:26:23.524Z,64.97
2018-04-19T04:28:52.440Z,64.57
2018-04-19T04:31:21.672Z,48.43
2018-04-19T04:33:50.972Z,65.30
2018-04-19T04:36:19.981Z,45.43
2018-04-19T04:38:48.589Z,67.70
2018-04-19T04:41:17.228Z,77.12
2018-04-19T04:43:45.888Z,42.20
2018-04-19T04:46:14.504Z,73.63
2018-04-19T04:48:43.140Z,63.77
2018-04-19T04:51:12.103Z,47.77
2018-04-19T04:53:41.149Z,41.57
2018-04-19T04:56:09.920Z,34.77
2018-04-19T04:58:38.581Z,52.73
2018-04-19T05:01:07.198Z,41.77
2018-04-19T05:03:35.821Z,76.13
2018-04-19T05:06:04.635Z,72.10
2018-04-19T05:08:33.511Z,54.87
2018-04-19T05:11:02.110Z,54.57
2018-04-19T05:13:30.707Z,37.33
2018-04-19T05:15:59.530Z,38.77
2018-04-19T05:18:28.334Z,42.53
2018-04-19T05:20:56.973Z,49.47
2018-04-19T05:23:25.644Z,47.90
2018-04-19T05:25:54.270Z,51.97
2018-04-19T05:28:22.871Z,59.73
2018-04-19T05:30:51.692Z,47.97
2018-04-19T05:33:20.281Z,56.80
2018-04-19T05:35:48.919Z,47.40
2018-04-19T05:38:17.528Z,55.40
2018-04-19T05:40:46.191Z,48.97
2018-04-19T05:43:14.949Z,44.23
2018-04-19T05:45:43.578Z,53.83
2018-04-19T05:48:12.666Z,50.70
2018-04-19T05:50:41.422Z,57.53
2018-04-19T05:53:10.221Z,56.20
2018-04-19T05:55:38.976Z,49.13
2018-04-19T05:58:07.999Z,52.20
2018-04-19T06:00:36.650Z,46.07
2018-04-19T06:03:05.336Z,45.60
2018-04-19T06:05:34.298Z,57.38
2018-04-19T06:08:03.123Z,46.73
2018-04-19T06:10:32.080Z,50.97
2018-04-19T06:13:00.707Z,49.20
2018-04-19T06:15:29.683Z,58.53
2018-04-19T06:17:58.547Z,61.30
2018-04-19T06:20:27.213Z,63.50
2018-04-19T06:22:56.099Z,57.77
2018-04-19T06:25:24.954Z,54.60
2018-04-19T06:27:53.711Z,43.93
2018-04-19T06:30:22.484Z,54.43
2018-04-19T06:32:51.078Z,56.88
2018-04-19T06:35:19.678Z,51.53
2018-04-19T06:37:48.283Z,49.33
2018-04-19T06:40:17.009Z,52.87
2018-04-19T06:42:45.837Z,52.47
2018-04-19T06:45:14.711Z,47.67
2018-04-19T06:47:43.330Z,47.83
2018-04-19T06:50:12.262Z,46.37
2018-04-19T06:52:41.111Z,41.53
2018-04-19T06:55:12.963Z,47.17
2018-04-19T06:57:45.408Z,44.20
2018-04-19T07:00:27.820Z,45.80
2018-04-19T07:02:59.585Z,47.13
2018-04-19T07:05:34.246Z,45.57
2018-04-19T07:08:02.795Z,40.30
2018-04-19T07:10:31.611Z,39.97
2018-04-19T07:13:00.514Z,47.03
2018-04-19T07:15:29.150Z,44.40
2018-04-19T07:17:57.753Z,38.27
2018-04-19T07:20:26.419Z,37.72
2018-04-19T07:22:55.546Z,40.83
2018-04-19T07:25:24.222Z,37.55
2018-04-19T07:27:52.833Z,45.38
2018-04-19T07:30:22.007Z,44.13
2018-04-19T07:32:50.743Z,42.55
2018-04-19T07:35:19.342Z,44.10
2018-04-19T07:37:48.185Z,42.20
2018-04-19T07:40:16.802Z,39.20
2018-04-19T07:42:45.777Z,38.30
2018-04-19T07:45:14.395Z,40.05
2018-04-19T07:47:43.300Z,42.92
2018-04-19T07:50:12.140Z,41.30
2018-04-19T07:52:40.770Z,39.28
2018-04-19T07:55:09.375Z,38.17
2018-04-19T07:57:38.191Z,39.10
2018-04-19T08:00:06.871Z,41.22
2018-04-19T08:02:35.756Z,36.45
2018-04-19T08:05:04.355Z,35.88
2018-04-19T08:07:33.115Z,36.55
2018-04-19T08:10:01.818Z,41.80
2018-04-19T08:12:31.516Z,36.67
2018-04-19T08:15:02.573Z,30.45
2018-04-19T08:17:33.992Z,32.88
2018-04-19T08:20:02.606Z,32.45
2018-04-19T08:22:31.449Z,36.70
2018-04-19T08:25:00.381Z,30.40
2018-04-19T08:27:31.828Z,30.08
2018-04-19T08:30:00.460Z,32.08
2018-04-19T08:32:29.073Z,31.87
2018-04-19T08:34:57.720Z,29.12
2018-04-19T08:37:26.338Z,32.45
2018-04-19T08:39:55.249Z,30.45
2018-04-19T08:42:23.969Z,29.40
2018-04-19T08:44:52.612Z,30.15
2018-04-19T08:47:21.210Z,28.58
2018-04-19T08:49:49.977Z,29.02
2018-04-19T08:52:18.596Z,29.55
2018-04-19T08:54:47.221Z,28.75
2018-04-19T08:57:16.521Z,29.70
2018-04-19T08:59:47.002Z,27.67
2018-04-19T09:02:15.629Z,28.50
2018-04-19T09:04:44.362Z,27.30
2018-04-19T09:07:12.975Z,32.00
2018-04-19T09:09:41.633Z,31.95
2018-04-19T09:12:10.270Z,31.65
2018-04-19T09:14:39.901Z,31.23
2018-04-19T09:17:12.791Z,31.48
2018-04-19T09:19:41.782Z,32.95
2018-04-19T09:22:18.263Z,27.95
2018-04-19T09:25:00.763Z,29.45
2018-04-19T09:27:33.605Z,28.05
2018-04-19T09:30:03.287Z,30.75
2018-04-19T09:32:32.467Z,31.15
2018-04-19T09:35:03.743Z,31.48
2018-04-19T09:37:35.136Z,28.92
2018-04-19T09:40:05.580Z,30.40
2018-04-19T09:42:34.504Z,27.33
2018-04-19T09:45:03.110Z,29.10
2018-04-19T09:47:31.863Z,28.90
2018-04-19T09:50:01.254Z,31.05
2018-04-19T09:52:30.399Z,30.35
2018-04-19T09:54:59.035Z,29.73
2018-04-19T09:57:28.276Z,27.05
2018-04-19T10:00:03.769Z,27.15
2018-04-19T10:02:35.651Z,27.23
2018-04-19T10:05:07.989Z,29.55
2018-04-19T10:07:40.492Z,27.50
2018-04-19T10:10:09.174Z,25.98
2018-04-19T10:12:40.698Z,24.42
2018-04-19T10:15:10.777Z,33.10
2018-04-19T10:17:41.703Z,26.40
2018-04-19T10:20:10.978Z,25.77
2018-04-19T10:22:40.084Z,27.48
2018-04-19T10:25:13.863Z,26.12
2018-04-19T10:27:55.060Z,27.98
2018-04-19T10:30:25.220Z,29.00
2018-04-19T10:32:55.399Z,28.15
2018-04-19T10:35:24.140Z,26.77
2018-04-19T10:37:52.739Z,25.33
2018-04-19T10:40:21.438Z,24.25
2018-04-19T10:42:50.933Z,25.65
2018-04-19T10:45:22.758Z,24.63
2018-04-19T10:47:51.367Z,25.90
2018-04-19T10:50:20.039Z,24.63
2018-04-19T10:52:48.604Z,22.20
2018-04-19T10:55:17.236Z,23.17
2018-04-19T10:57:46.048Z,23.83
2018-04-19T11:00:14.670Z,24.00
2018-04-19T11:02:43.269Z,24.65
2018-04-19T11:05:11.897Z,23.27
2018-04-19T11:07:40.502Z,24.75
2018-04-19T11:10:09.136Z,23.38
2018-04-19T11:12:37.752Z,22.50
2018-04-19T11:15:06.348Z,24.23
2018-04-19T11:17:35.265Z,26.25
2018-04-19T11:20:03.876Z,26.35
2018-04-19T11:22:32.509Z,23.83
2018-04-19T11:25:01.109Z,23.50
2018-04-19T11:27:29.737Z,23.20
2018-04-19T11:29:58.339Z,24.42
2018-04-19T11:32:26.974Z,24.67
2018-04-19T11:34:55.574Z,24.73
2018-04-19T11:37:24.206Z,24.23
2018-04-19T11:39:52.812Z,26.27
2018-04-19T11:42:21.478Z,25.23
2018-04-19T11:44:50.088Z,26.77
2018-04-19T11:47:18.722Z,28.62
2018-04-19T11:49:47.329Z,26.62
2018-04-19T11:52:15.965Z,25.05
2018-04-19T11:54:44.568Z,22.37
2018-04-19T11:57:13.414Z,21.50
2018-04-19T11:59:42.034Z,22.33
2018-04-19T12:02:11.668Z,22.47
2018-04-19T12:04:40.250Z,22.00
2018-04-19T12:07:08.896Z,19.10
2018-04-19T12:09:37.502Z,19.75
2018-04-19T12:12:06.102Z,16.20
2018-04-19T12:14:34.730Z,21.98
2018-04-19T12:17:03.343Z,18.98
2018-04-19T12:19:31.973Z,20.83
2018-04-19T12:22:00.581Z,14.20
2018-04-19T12:24:29.817Z,15.32
2018-04-19T12:26:58.590Z,18.80
2018-04-19T12:29:27.217Z,16.87
2018-04-19T12:31:55.830Z,14.80
2018-04-19T12:34:24.474Z,15.10
2018-04-19T12:36:53.222Z,10.23
2018-04-19T12:39:22.182Z,11.82
2018-04-19T12:41:50.839Z,12.60
2018-04-19T12:44:19.667Z,12.75
2018-04-19T12:46:48.266Z,13.23
2018-04-19T12:49:17.360Z,11.93
2018-04-19T12:51:45.970Z,14.07
2018-04-19T12:54:15.615Z,12.48
2018-04-19T12:56:44.294Z,13.18
2018-04-19T12:59:13.116Z,15.32
2018-04-19T13:01:44.713Z,18.33
2018-04-19T13:04:13.489Z,16.42
2018-04-19T13:06:42.544Z,13.20
2018-04-19T13:09:11.138Z,12.80
2018-04-19T13:11:40.110Z,11.12
2018-04-19T13:14:08.759Z,12.07
2018-04-19T13:16:37.555Z,12.95
2018-04-19T13:19:06.301Z,17.33
2018-04-19T13:21:35.097Z,15.93
2018-04-19T13:24:05.326Z,16.35
2018-04-19T13:26:33.955Z,16.08
2018-04-19T13:29:02.560Z,15.07
2018-04-19T13:31:31.194Z,12.52
2018-04-19T13:33:59.827Z,14.10
2018-04-19T13:36:28.459Z,12.32
2018-04-19T13:38:57.078Z,12.77
2018-04-19T13:41:26.073Z,15.55
2018-04-19T13:43:54.743Z,13.85
2018-04-19T13:46:23.483Z,12.70
2018-04-19T13:48:52.085Z,16.80
2018-04-19T13:51:20.691Z,17.87
2018-04-19T13:53:49.328Z,16.37
2018-04-19T13:56:17.939Z,16.58
2018-04-19T13:58:46.572Z,16.33
2018-04-19T14:01:15.173Z,16.65
2018-04-19T14:03:43.806Z,17.30
2018-04-19T14:06:12.406Z,16.70
2018-04-19T14:08:41.042Z,17.48
2018-04-19T14:11:09.643Z,14.98
2018-04-19T14:13:38.275Z,13.35
2018-04-19T14:16:06.873Z,13.52
2018-04-19T14:18:35.493Z,13.75
2018-04-19T14:21:04.093Z,13.52
2018-04-19T14:23:32.780Z,16.52
2018-04-19T14:26:01.425Z,15.68
2018-04-19T14:28:30.062Z,13.80
2018-04-19T14:30:58.658Z,14.77
2018-04-19T14:33:27.324Z,14.02
2018-04-19T14:35:55.929Z,14.80
2018-04-19T14:38:24.528Z,16.90
2018-04-19T14:40:53.168Z,13.02
2018-04-19T14:43:21.768Z,14.25
2018-04-19T14:45:52.741Z,13.27
2018-04-19T14:48:21.339Z,13.35
2018-04-19T14:50:50.039Z,13.20
2018-04-19T14:53:18.634Z,13.20
2018-04-19T14:55:47.298Z,13.00
2018-04-19T14:58:15.908Z,15.05
2018-04-19T15:00:44.570Z,13.30
2018-04-19T15:03:13.137Z,13.85
2018-04-19T15:05:41.759Z,15.03
2018-04-19T15:08:10.364Z,12.77
2018-04-19T15:10:38.999Z,13.35
2018-04-19T15:13:07.589Z,11.55
2018-04-19T15:15:36.215Z,13.10
2018-04-19T15:18:12.078Z,12.52
2018-04-19T15:20:40.745Z,12.23
2018-04-19T15:23:09.372Z,11.05
2018-04-19T15:25:38.585Z,10.27
2018-04-19T15:28:07.209Z,10.73
2018-04-19T15:30:35.806Z,11.90
2018-04-19T15:33:04.447Z,13.73
2018-04-19T15:35:33.051Z,12.15
2018-04-19T15:38:01.685Z,11.40
2018-04-19T15:40:30.284Z,15.00
2018-04-19T15:42:58.917Z,13.27
2018-04-19T15:45:27.516Z,12.63
2018-04-19T15:47:56.212Z,14.98
2018-04-19T15:50:24.750Z,14.05
2018-04-19T15:52:53.416Z,13.88
2018-04-19T15:55:22.100Z,13.90
2018-04-19T15:57:50.965Z,14.30
2018-04-19T16:00:19.712Z,15.05
2018-04-19T16:02:49.098Z,15.50
2018-04-19T16:05:17.875Z,14.45
2018-04-19T16:07:46.560Z,15.23
2018-04-19T16:10:15.190Z,14.48
2018-04-19T16:12:43.799Z,12.98
2018-04-19T16:15:12.454Z,14.32
2018-04-19T16:17:41.357Z,10.98
2018-04-19T16:20:10.178Z,14.75
2018-04-19T16:22:38.914Z,11.88
2018-04-19T16:25:09.848Z,11.57
2018-04-19T16:27:38.504Z,10.85
2018-04-19T16:30:07.146Z,11.45
2018-04-19T16:32:35.738Z,10.10
2018-04-19T16:35:04.371Z,14.65
2018-04-19T16:37:33.040Z,11.35
2018-04-19T16:40:01.602Z,10.25
2018-04-19T16:42:33.005Z,12.70
2018-04-19T16:45:01.760Z,11.43
2018-04-19T16:47:32.673Z,11.00
2018-04-19T16:50:01.357Z,15.88
2018-04-19T16:52:29.951Z,11.30
2018-04-19T16:54:58.780Z,13.82
2018-04-19T16:57:27.490Z,16.02
2018-04-19T16:59:56.248Z,13.10
2018-04-19T17:02:24.843Z,13.32
2018-04-19T17:04:53.608Z,12.20
2018-04-19T17:07:22.250Z,11.90
2018-04-19T17:09:50.850Z,11.30
2018-04-19T17:12:19.495Z,12.55
2018-04-19T17:14:48.093Z,12.35
2018-04-19T17:17:16.710Z,13.85
2018-04-19T17:19:45.525Z,14.23
2018-04-19T17:22:15.154Z,13.20
2018-04-19T17:24:43.840Z,14.27
2018-04-19T17:27:12.490Z,16.80
2018-04-19T17:29:41.515Z,17.50
2018-04-19T17:32:10.158Z,17.48
2018-04-19T17:34:38.904Z,16.50
2018-04-19T17:37:07.539Z,15.98
2018-04-19T17:39:36.215Z,17.42
2018-04-19T17:42:04.977Z,16.08
2018-04-19T17:44:34.795Z,16.37
2018-04-19T17:47:03.417Z,16.25
2018-04-19T17:49:32.049Z,17.05
2018-04-19T17:52:00.976Z,17.92
2018-04-19T17:54:29.626Z,16.87
2018-04-19T17:56:58.317Z,18.83
2018-04-19T17:59:26.994Z,18.05
2018-04-19T18:01:55.594Z,21.77
2018-04-19T18:04:25.105Z,18.87
2018-04-19T18:06:53.682Z,17.40
2018-04-19T18:09:22.912Z,19.67
2018-04-19T18:11:53.470Z,22.20
2018-04-19T18:14:22.096Z,15.38
2018-04-19T18:16:50.701Z,17.15
2018-04-19T18:19:19.323Z,21.52
2018-04-19T18:21:47.917Z,21.90
2018-04-19T18:24:16.552Z,21.23
2018-04-19T18:26:51.509Z,16.87
2018-04-19T18:29:20.184Z,18.98
2018-04-19T18:31:49.327Z,17.90
2018-04-19T18:34:18.035Z,19.60
2018-04-19T18:36:47.304Z,16.30
2018-04-19T18:39:15.935Z,16.02
2018-04-19T18:41:46.423Z,17.20
2018-04-19T18:44:15.450Z,18.92
2018-04-19T18:46:44.524Z,18.50
2018-04-19T18:49:14.009Z,15.27
2018-04-19T18:51:45.485Z,15.68
2018-04-19T18:54:14.701Z,15.25
2018-04-19T18:56:43.422Z,15.13
2018-04-19T18:59:15.666Z,17.87
2018-04-19T19:01:44.907Z,13.75
2018-04-19T19:04:14.744Z,12.95
2018-04-19T19:06:45.391Z,13.10
2018-04-19T19:09:14.274Z,12.50
2018-04-19T19:11:43.771Z,16.67
2018-04-19T19:14:18.502Z,15.87
2018-04-19T19:16:50.299Z,12.55
2018-04-19T19:19:57.319Z,18.05
2018-04-19T19:22:26.876Z,19.77
2018-04-19T19:24:57.134Z,19.03
2018-04-19T19:27:27.270Z,17.33
2018-04-19T19:29:56.493Z,17.80
2018-04-19T19:32:25.400Z,17.50
2018-04-19T19:34:54.610Z,19.10
2018-04-19T19:37:23.752Z,18.50
2018-04-19T19:39:54.267Z,19.27
2018-04-19T19:42:24.819Z,16.37
2018-04-19T19:44:53.595Z,18.97
2018-04-19T19:47:22.238Z,18.60
2018-04-19T19:49:57.881Z,18.90
2018-04-19T19:52:45.837Z,17.57
2018-04-19T19:55:15.998Z,17.97
2018-04-19T19:57:52.048Z,15.23
2018-04-19T20:00:32.780Z,15.03
2018-04-19T20:03:05.025Z,17.93
2018-04-19T20:05:33.875Z,18.40
2018-04-19T20:08:03.522Z,13.97
2018-04-19T20:10:34.265Z,12.70
2018-04-19T20:13:10.481Z,16.87
2018-04-19T20:15:40.037Z,16.47
2018-04-19T20:18:19.220Z,14.77
2018-04-19T20:20:56.662Z,17.30
2018-04-19T20:23:32.606Z,16.90
2018-04-19T20:26:06.620Z,18.67
2018-04-19T20:28:35.506Z,15.43
2018-04-19T20:31:06.388Z,17.67
2018-04-19T20:33:36.723Z,21.55
2018-04-19T20:36:05.954Z,21.87
2018-04-19T20:38:38.055Z,15.13
2018-04-19T20:41:07.321Z,16.73
2018-04-19T20:43:38.477Z,18.77
2018-04-19T20:46:09.174Z,16.80
2018-04-19T20:48:40.945Z,17.37
2018-04-19T20:51:11.378Z,21.40
2018-04-19T20:53:41.559Z,17.37
2018-04-19T20:56:12.532Z,18.70
2018-04-19T20:58:43.681Z,20.50
2018-04-19T21:01:13.896Z,19.97
2018-04-19T21:03:52.885Z,22.57
2018-04-19T21:06:29.753Z,22.70
2018-04-19T21:09:02.735Z,21.30
2018-04-19T21:11:33.224Z,22.70
2018-04-19T21:14:03.024Z,22.53
2018-04-19T21:16:33.959Z,21.87
2018-04-19T21:19:04.421Z,18.80
2018-04-19T21:21:39.896Z,14.87
2018-04-19T21:24:10.598Z,20.23
2018-04-19T21:26:39.621Z,17.77
2018-04-19T21:29:09.616Z,22.52
2018-04-19T21:31:39.191Z,20.23
2018-04-19T21:34:08.706Z,17.93
2018-04-19T21:36:46.026Z,20.90
2018-04-19T21:39:16.316Z,19.67
2018-04-19T21:41:47.197Z,20.57
2018-04-19T21:44:18.132Z,24.03
2018-04-19T21:46:48.140Z,22.95
2018-04-19T21:49:17.814Z,21.57
2018-04-19T21:51:50.664Z,18.70
2018-04-19T21:54:20.031Z,24.10
2018-04-19T21:56:51.513Z,21.27
2018-04-19T21:59:20.961Z,23.47
2018-04-19T22:01:50.456Z,23.83
2018-04-19T22:04:19.432Z,24.27
2018-04-19T22:06:49.429Z,21.90
2018-04-19T22:09:28.362Z,27.70
2018-04-19T22:11:57.523Z,23.10
2018-04-19T22:14:26.751Z,20.97
2018-04-19T22:16:56.000Z,18.90
2018-04-19T22:19:25.367Z,24.80
2018-04-19T22:21:54.881Z,25.97
2018-04-19T22:24:25.850Z,25.13
2018-04-19T22:26:55.712Z,26.80
2018-04-19T22:29:26.375Z,30.43
2018-04-19T22:31:55.096Z,27.73
2018-04-19T22:34:24.674Z,29.70
2018-04-19T22:36:53.879Z,30.02
2018-04-19T22:39:23.279Z,27.63
2018-04-19T22:41:52.838Z,26.63
2018-04-19T22:44:21.699Z,24.83
2018-04-19T22:46:51.057Z,24.17
2018-04-19T22:49:20.048Z,24.87
2018-04-19T22:51:48.847Z,24.63
2018-04-19T22:54:18.078Z,24.37
2018-04-19T22:56:47.262Z,22.80
2018-04-19T22:59:16.658Z,27.87
2018-04-19T23:01:45.798Z,25.80
2018-04-19T23:04:14.762Z,30.67
2018-04-19T23:06:43.763Z,29.93
2018-04-19T23:09:12.854Z,26.73
2018-04-19T23:11:42.831Z,27.60
2018-04-19T23:14:11.965Z,29.50
2018-04-19T23:16:41.468Z,32.58
2018-04-19T23:19:10.322Z,24.80
2018-04-19T23:21:49.519Z,27.80
2018-04-19T23:24:19.128Z,29.07
2018-04-19T23:26:48.196Z,36.37
2018-04-19T23:29:17.365Z,34.50
2018-04-19T23:31:45.903Z,31.30
2018-04-19T23:34:14.498Z,32.40
2018-04-19T23:36:43.132Z,33.27
2018-04-19T23:39:12.595Z,30.93
2018-04-19T23:41:41.399Z,28.37
2018-04-19T23:44:10.206Z,27.03
2018-04-19T23:46:39.738Z,30.00
2018-04-19T23:49:08.203Z,27.60
2018-04-19T23:51:36.839Z,26.03
2018-04-19T23:54:05.434Z,29.67
2018-04-19T23:56:34.084Z,29.73
2018-04-19T23:59:02.689Z,27.43
